createdAt,value
2018-12-27T00:03:00.098Z,94.48
2018-12-27T00:07:55.946Z,94.48
2018-12-27T00:12:51.842Z,94.67
2018-12-27T00:17:47.690Z,94.53
2018-12-27T00:22:43.574Z,94.75
2018-12-27T00:27:39.407Z,95.59
2018-12-27T00:32:35.497Z,95.07
2018-12-27T00:37:31.608Z,94.31
2018-12-27T00:42:27.643Z,95.05
2018-12-27T00:47:23.661Z,96.08
2018-12-27T00:52:19.658Z,94.86
2018-12-27T00:57:15.679Z,96.74
2018-12-27T01:02:11.675Z,96.89
2018-12-27T01:07:07.695Z,96.81
2018-12-27T01:12:03.846Z,97.07
2018-12-27T01:16:59.963Z,95.23
2018-12-27T01:21:56.000Z,95.88
2018-12-27T01:26:52.043Z,96.01
2018-12-27T01:31:50.701Z,95.57
2018-12-27T01:36:46.423Z,96.22
2018-12-27T01:41:42.547Z,94.24
2018-12-27T01:46:38.579Z,94.20
2018-12-27T01:51:34.582Z,95.18
2018-12-27T01:56:30.620Z,98.00
2018-12-27T02:01:26.712Z,98.51
2018-12-27T02:06:22.731Z,96.46
2018-12-27T02:11:18.819Z,95.54
2018-12-27T02:16:14.830Z,95.80
2018-12-27T02:21:11.897Z,95.73
2018-12-27T02:26:07.913Z,96.24
2018-12-27T02:31:03.947Z,96.39
2018-12-27T02:35:59.964Z,95.15
2018-12-27T02:40:56.202Z,95.66
2018-12-27T02:45:52.225Z,96.61
2018-12-27T02:50:48.368Z,96.30
2018-12-27T02:55:44.363Z,96.08
2018-12-27T03:00:40.405Z,97.26
2018-12-27T03:05:36.582Z,95.59
2018-12-27T03:10:32.939Z,95.12
2018-12-27T03:15:29.711Z,95.32
2018-12-27T03:20:25.970Z,96.46
2018-12-27T03:25:22.279Z,96.03
2018-12-27T03:30:18.299Z,94.03
2018-12-27T03:35:14.339Z,94.24
2018-12-27T03:40:10.820Z,94.91
2018-12-27T03:45:06.823Z,94.93
2018-12-27T03:50:02.893Z,94.30
2018-12-27T03:54:58.998Z,94.40
2018-12-27T03:59:55.214Z,93.35
2018-12-27T04:04:51.703Z,93.61
2018-12-27T04:09:48.333Z,95.06
2018-12-27T04:14:44.443Z,94.72
2018-12-27T04:19:40.884Z,94.18
2018-12-27T04:24:37.502Z,95.37
2018-12-27T04:29:33.344Z,96.73
2018-12-27T04:34:30.930Z,96.10
2018-12-27T04:39:27.392Z,97.39
2018-12-27T04:44:24.756Z,96.83
2018-12-27T04:49:21.276Z,96.97
2018-12-27T04:54:17.916Z,97.62
2018-12-27T04:59:15.023Z,97.11
2018-12-27T05:09:51.086Z,96.84
2018-12-27T05:15:25.075Z,96.44
2018-12-27T05:20:20.828Z,96.96
2018-12-27T05:25:35.654Z,97.24
2018-12-27T05:30:50.454Z,96.41
2018-12-27T05:36:05.448Z,97.10
2018-12-27T05:41:20.513Z,96.41
2018-12-27T05:46:35.295Z,97.07
2018-12-27T05:52:09.881Z,96.29
2018-12-27T05:57:43.644Z,96.63
2018-12-27T06:08:40.275Z,96.77
2018-12-27T06:13:55.122Z,97.26
2018-12-27T06:19:09.889Z,96.77
2018-12-27T06:24:46.450Z,96.41
2018-12-27T06:36:05.983Z,95.55
2018-12-27T06:59:31.462Z,96.12
2018-12-27T07:05:43.065Z,96.49
2018-12-27T07:11:56.446Z,95.84
2018-12-27T07:17:33.876Z,95.19
2018-12-27T07:22:50.971Z,94.89
2018-12-27T07:34:18.107Z,96.29
2018-12-27T07:39:38.782Z,95.59
2018-12-27T07:45:36.733Z,95.60
2018-12-27T08:01:53.741Z,94.29
2018-12-27T08:07:08.735Z,94.63
2018-12-27T08:12:23.699Z,93.68
2018-12-27T08:18:33.521Z,93.60
2018-12-27T08:23:36.305Z,94.77
2018-12-27T08:51:26.187Z,92.67
2018-12-27T09:01:57.353Z,92.77
2018-12-27T09:07:12.196Z,92.56
2018-12-27T09:12:34.019Z,92.72
2018-12-27T09:18:29.617Z,90.63
2018-12-27T09:23:28.885Z,92.74
2018-12-27T09:28:27.681Z,92.12
2018-12-27T09:33:23.642Z,91.23
2018-12-27T09:38:38.454Z,91.05
2018-12-27T09:55:16.557Z,91.74
2018-12-27T10:00:24.547Z,91.56
2018-12-27T10:05:47.062Z,91.46
2018-12-27T10:11:02.462Z,92.35
2018-12-27T10:21:58.381Z,90.63
2018-12-27T10:27:35.895Z,92.88
2018-12-27T10:32:52.425Z,92.45
2018-12-27T10:49:22.454Z,92.01
2018-12-27T10:55:17.975Z,91.77
2018-12-27T11:00:32.374Z,91.02
2018-12-27T11:05:48.836Z,90.52
2018-12-27T11:11:11.640Z,89.54
2018-12-27T11:16:49.051Z,91.21
2018-12-27T11:22:05.080Z,89.89
2018-12-27T11:27:22.712Z,89.60
2018-12-27T11:32:37.653Z,89.29
2018-12-27T11:38:12.954Z,88.39
2018-12-27T11:49:11.465Z,89.34
2018-12-27T11:59:30.358Z,89.33
2018-12-27T12:04:45.401Z,90.25
2018-12-27T12:10:02.139Z,90.72
2018-12-27T12:15:17.032Z,88.33
2018-12-27T12:21:07.433Z,88.21
2018-12-27T12:26:10.764Z,88.26
2018-12-27T12:37:14.377Z,87.98
2018-12-27T12:43:10.565Z,89.05
2018-12-27T12:48:25.319Z,88.12
2018-12-27T12:58:53.108Z,88.31
2018-12-27T13:04:09.408Z,88.49
2018-12-27T13:09:24.122Z,89.01
2018-12-27T13:19:58.964Z,88.38
2018-12-27T13:25:13.206Z,89.04
2018-12-27T13:30:28.008Z,89.77
2018-12-27T13:41:03.628Z,89.35
2018-12-27T13:46:18.414Z,89.44
2018-12-27T13:51:33.176Z,89.81
2018-12-27T13:56:55.778Z,91.44
2018-12-27T14:02:03.532Z,90.99
2018-12-27T14:07:18.288Z,91.26
2018-12-27T14:12:33.438Z,89.89
2018-12-27T14:17:48.182Z,91.09
2018-12-27T14:23:02.937Z,91.88
2018-12-27T14:28:17.888Z,90.72
2018-12-27T14:33:32.705Z,92.85
2018-12-27T14:38:28.646Z,92.00
2018-12-27T14:43:23.846Z,92.94
2018-12-27T14:48:19.869Z,93.25
2018-12-27T14:53:15.751Z,93.37
2018-12-27T14:58:11.731Z,94.35
2018-12-27T15:03:07.759Z,94.98
2018-12-27T15:08:03.547Z,94.47
2018-12-27T15:12:59.440Z,95.02
2018-12-27T15:17:55.311Z,93.08
2018-12-27T15:22:51.191Z,93.04
2018-12-27T15:27:46.976Z,94.77
2018-12-27T15:32:42.900Z,93.91
2018-12-27T15:37:38.818Z,94.97
2018-12-27T15:42:34.934Z,95.39
2018-12-27T15:47:31.096Z,95.99
2018-12-27T15:52:27.163Z,95.94
2018-12-27T15:57:23.395Z,95.60
2018-12-27T16:02:19.288Z,96.53
2018-12-27T16:07:15.105Z,95.83
2018-12-27T16:12:10.935Z,95.08
2018-12-27T16:17:06.754Z,95.29
2018-12-27T16:22:02.567Z,96.45
2018-12-27T16:26:58.364Z,96.25
2018-12-27T16:31:59.945Z,96.41
2018-12-27T16:36:56.624Z,96.59
2018-12-27T16:41:53.494Z,97.55
2018-12-27T16:46:50.663Z,98.19
2018-12-27T16:51:47.120Z,98.25
2018-12-27T16:56:43.910Z,96.46
2018-12-27T17:01:40.940Z,97.13
2018-12-27T17:06:37.876Z,98.33
2018-12-27T17:11:35.025Z,95.91
2018-12-27T17:16:31.595Z,97.39
2018-12-27T17:21:28.404Z,97.21
2018-12-27T17:26:25.380Z,97.90
2018-12-27T17:31:22.106Z,96.62
2018-12-27T17:36:19.112Z,95.88
2018-12-27T17:41:15.819Z,96.44
2018-12-27T17:46:12.448Z,96.50
2018-12-27T17:51:09.402Z,96.74
2018-12-27T17:56:06.326Z,96.78
2018-12-27T18:01:43.215Z,97.53
2018-12-27T18:06:40.040Z,98.03
2018-12-27T18:11:36.853Z,97.72
2018-12-27T18:16:33.564Z,97.12
2018-12-27T18:27:42.476Z,96.64
2018-12-27T18:32:39.410Z,97.04
2018-12-27T18:37:37.906Z,96.54
2018-12-27T18:42:34.750Z,96.57
2018-12-27T18:47:31.317Z,96.54
2018-12-27T18:52:28.027Z,96.71
2018-12-27T18:57:24.646Z,96.42
2018-12-27T19:02:21.523Z,96.59
2018-12-27T19:07:18.636Z,96.38
2018-12-27T19:13:09.617Z,96.46
2018-12-27T19:18:33.483Z,96.97
2018-12-27T19:23:31.146Z,97.01
2018-12-27T19:28:29.690Z,96.99
2018-12-27T19:33:38.052Z,96.66
2018-12-27T19:38:33.871Z,96.63
2018-12-27T19:43:30.674Z,96.99
2018-12-27T19:48:27.314Z,97.65
2018-12-27T19:53:24.172Z,97.83
2018-12-27T19:58:21.084Z,98.12
2018-12-27T20:03:18.069Z,97.85
2018-12-27T20:08:15.089Z,98.05
2018-12-27T20:13:13.951Z,98.06
2018-12-27T20:18:10.865Z,97.30
2018-12-27T20:23:07.657Z,98.26
2018-12-27T20:28:04.187Z,98.23
2018-12-27T20:33:00.809Z,98.00
2018-12-27T21:02:32.156Z,98.43
2018-12-27T21:07:28.800Z,98.84
2018-12-27T21:12:25.624Z,99.06
2018-12-27T21:17:22.599Z,99.35
2018-12-27T21:22:19.240Z,99.09
2018-12-27T21:27:15.965Z,99.13
2018-12-27T21:32:11.850Z,99.25
2018-12-27T21:37:08.224Z,99.00
2018-12-27T21:42:04.797Z,99.39
2018-12-27T21:47:01.585Z,98.97
2018-12-27T21:51:58.372Z,98.94
2018-12-27T21:56:54.983Z,98.44
2018-12-27T22:01:51.681Z,98.36
2018-12-27T22:06:48.330Z,98.83
2018-12-27T22:11:44.845Z,99.20
2018-12-27T22:17:24.097Z,99.30
2018-12-27T22:22:09.999Z,98.13
2018-12-27T22:27:06.693Z,97.05
2018-12-27T22:32:11.136Z,97.61
2018-12-27T22:37:06.840Z,97.79
2018-12-27T22:42:03.202Z,98.27
2018-12-27T22:47:00.331Z,98.15
2018-12-27T22:51:56.145Z,98.00
2018-12-27T22:56:52.273Z,97.64
2018-12-27T23:01:48.285Z,97.95
2018-12-27T23:06:44.064Z,97.23
2018-12-27T23:11:39.916Z,97.42
2018-12-27T23:16:35.703Z,97.93
2018-12-27T23:21:32.539Z,98.02
2018-12-27T23:26:28.257Z,98.26
2018-12-27T23:31:24.110Z,99.12
2018-12-27T23:36:20.219Z,99.19
2018-12-27T23:41:16.669Z,98.74
2018-12-27T23:46:12.483Z,98.09
2018-12-27T23:51:09.467Z,98.52
2018-12-27T23:56:05.793Z,98.98
